BER6508 EDDK-EDDT
Flight info
| Callsign | BER6508 |
|---|---|
| Flight time | N/A |
| Altitude | 33000 |
| Route | PODIP8K PODIP Y867 WRB P12 BATEL BATEL6Z |
| Aircraft | A320/M-SDE3FGHIRWY/LB1 |
Departure
| Time | 2026-04-30 07:10 |
|---|---|
| Airport | Cologne Bonn Airport (EDDK) |
Arrival
| Time | N/A |
|---|---|
| Airport | EDDT |
| Time | Latitude | Longitude | Altitude | Speed | Heading |
|---|---|---|---|---|---|
| 2026-04-30 06:48 | 50.88247 | 7.12199 | 234 ft | 0 kts | 36° |
| 2026-04-30 07:01 | 50.88228 | 7.12179 | 236 ft | 4 kts | 32° |
| 2026-04-30 07:02 | 50.88210 | 7.12159 | 233 ft | 4 kts | 65° |
| 2026-04-30 07:02 | 50.88212 | 7.12126 | 233 ft | 4 kts | 122° |
| 2026-04-30 07:02 | 50.88225 | 7.12096 | 235 ft | 1 kts | 126° |
| 2026-04-30 07:06 | 50.88220 | 7.12107 | 235 ft | 3 kts | 126° |
| 2026-04-30 07:06 | 50.88196 | 7.12159 | 233 ft | 9 kts | 126° |
| 2026-04-30 07:07 | 50.88145 | 7.12266 | 232 ft | 15 kts | 127° |
| 2026-04-30 07:07 | 50.88070 | 7.12388 | 232 ft | 16 kts | 123° |
| 2026-04-30 07:07 | 50.88012 | 7.12544 | 234 ft | 17 kts | 120° |
| 2026-04-30 07:07 | 50.87988 | 7.12709 | 234 ft | 15 kts | 79° |
| 2026-04-30 07:08 | 50.87998 | 7.12760 | 236 ft | 0 kts | 73° |
| 2026-04-30 07:08 | 50.87998 | 7.12762 | 236 ft | 1 kts | 73° |
| 2026-04-30 07:09 | 50.88007 | 7.12831 | 238 ft | 11 kts | 84° |
| 2026-04-30 07:09 | 50.87981 | 7.12993 | 239 ft | 17 kts | 124° |
| 2026-04-30 07:09 | 50.87898 | 7.13125 | 239 ft | 19 kts | 137° |
| 2026-04-30 07:09 | 50.87686 | 7.13434 | 239 ft | 74 kts | 137° |
| 2026-04-30 07:10 | 50.87151 | 7.14209 | 249 ft | 131 kts | 137° |
| 2026-04-30 07:10 | 50.86389 | 7.15289 | 566 ft | 149 kts | 136° |
| 2026-04-30 07:10 | 50.85625 | 7.16376 | 1323 ft | 146 kts | 135° |
| 2026-04-30 07:10 | 50.84878 | 7.17443 | 2094 ft | 149 kts | 135° |
| 2026-04-30 07:11 | 50.84072 | 7.18591 | 2566 ft | 164 kts | 135° |
| 2026-04-30 07:11 | 50.83184 | 7.19874 | 2988 ft | 182 kts | 135° |
| 2026-04-30 07:11 | 50.82263 | 7.21287 | 3708 ft | 185 kts | 128° |
| 2026-04-30 07:11 | 50.81598 | 7.23066 | 4470 ft | 189 kts | 109° |
| 2026-04-30 07:12 | 50.81339 | 7.25135 | 5135 ft | 198 kts | 98° |
| 2026-04-30 07:12 | 50.81146 | 7.27420 | 5521 ft | 221 kts | 97° |
| 2026-04-30 07:12 | 50.80938 | 7.29923 | 5951 ft | 242 kts | 97° |
| 2026-04-30 07:12 | 50.80710 | 7.32599 | 6716 ft | 249 kts | 97° |
| 2026-04-30 07:13 | 50.80478 | 7.35347 | 7524 ft | 254 kts | 95° |
| 2026-04-30 07:13 | 50.80613 | 7.38125 | 8328 ft | 258 kts | 73° |
| 2026-04-30 07:13 | 50.81402 | 7.40691 | 9184 ft | 262 kts | 63° |
| 2026-04-30 07:13 | 50.82295 | 7.43220 | 10055 ft | 264 kts | 62° |
| 2026-04-30 07:14 | 50.83201 | 7.45772 | 10767 ft | 271 kts | 62° |
| 2026-04-30 07:14 | 50.84164 | 7.48484 | 11009 ft | 294 kts | 62° |
| 2026-04-30 07:14 | 50.85192 | 7.51387 | 11470 ft | 307 kts | 62° |
| 2026-04-30 07:14 | 50.86238 | 7.54353 | 12186 ft | 311 kts | 61° |
| 2026-04-30 07:15 | 50.87297 | 7.57364 | 12937 ft | 314 kts | 61° |
| 2026-04-30 07:15 | 50.88367 | 7.60410 | 13684 ft | 318 kts | 62° |
| 2026-04-30 07:15 | 50.89445 | 7.63478 | 14398 ft | 321 kts | 62° |
| 2026-04-30 07:15 | 50.90534 | 7.66581 | 15045 ft | 324 kts | 61° |
| 2026-04-30 07:16 | 50.91634 | 7.69722 | 15678 ft | 327 kts | 61° |
| 2026-04-30 07:16 | 50.92739 | 7.72891 | 16310 ft | 330 kts | 61° |
| 2026-04-30 07:16 | 50.93854 | 7.76092 | 16951 ft | 333 kts | 61° |
| 2026-04-30 07:16 | 50.94981 | 7.79326 | 17568 ft | 337 kts | 61° |
| 2026-04-30 07:17 | 50.96120 | 7.82597 | 18188 ft | 340 kts | 61° |
| 2026-04-30 07:17 | 50.97269 | 7.85898 | 18787 ft | 343 kts | 61° |
| 2026-04-30 07:17 | 50.99589 | 7.92595 | 19850 ft | 349 kts | 61° |
| 2026-04-30 07:18 | 51.00762 | 7.95988 | 20401 ft | 352 kts | 61° |
| 2026-04-30 07:18 | 51.01930 | 7.99365 | 20930 ft | 355 kts | 61° |
| 2026-04-30 07:18 | 51.03122 | 8.02818 | 21457 ft | 358 kts | 61° |
| 2026-04-30 07:18 | 51.04322 | 8.06301 | 22003 ft | 361 kts | 60° |
| 2026-04-30 07:19 | 51.05526 | 8.09805 | 22572 ft | 363 kts | 60° |
| 2026-04-30 07:19 | 51.06741 | 8.13342 | 23103 ft | 366 kts | 60° |
| 2026-04-30 07:19 | 51.07964 | 8.16902 | 23628 ft | 369 kts | 60° |
| 2026-04-30 07:19 | 51.09197 | 8.20494 | 24111 ft | 371 kts | 60° |
| 2026-04-30 07:20 | 51.10440 | 8.24118 | 24529 ft | 374 kts | 60° |
| 2026-04-30 07:20 | 51.11686 | 8.27762 | 24966 ft | 376 kts | 60° |
| 2026-04-30 07:20 | 51.12935 | 8.31434 | 25384 ft | 378 kts | 60° |
| 2026-04-30 07:20 | 51.14191 | 8.35125 | 25816 ft | 380 kts | 60° |
| 2026-04-30 07:21 | 51.15450 | 8.38830 | 26225 ft | 381 kts | 60° |
| 2026-04-30 07:21 | 51.16714 | 8.42557 | 26627 ft | 383 kts | 60° |
| 2026-04-30 07:21 | 51.17981 | 8.46304 | 27007 ft | 385 kts | 60° |
| 2026-04-30 07:21 | 51.19256 | 8.50071 | 27383 ft | 387 kts | 60° |
| 2026-04-30 07:22 | 51.22427 | 8.57008 | 28133 ft | 390 kts | 50° |
| 2026-04-30 07:22 | 51.24183 | 8.60320 | 28539 ft | 391 kts | 50° |
| 2026-04-30 07:22 | 51.25937 | 8.63648 | 28954 ft | 392 kts | 50° |
| 2026-04-30 07:23 | 51.27670 | 8.66948 | 29321 ft | 393 kts | 50° |
| 2026-04-30 07:23 | 51.29427 | 8.70302 | 29671 ft | 395 kts | 50° |
| 2026-04-30 07:23 | 51.31188 | 8.73673 | 30007 ft | 396 kts | 50° |
| 2026-04-30 07:23 | 51.32957 | 8.77069 | 30337 ft | 398 kts | 50° |
| 2026-04-30 07:24 | 51.34736 | 8.80481 | 30638 ft | 400 kts | 50° |
| 2026-04-30 07:24 | 51.36517 | 8.83908 | 30903 ft | 401 kts | 50° |
| 2026-04-30 07:24 | 51.38307 | 8.87358 | 31168 ft | 403 kts | 50° |
| 2026-04-30 07:24 | 51.40102 | 8.90814 | 31428 ft | 404 kts | 50° |
| 2026-04-30 07:25 | 51.41898 | 8.94269 | 31678 ft | 405 kts | 50° |
| 2026-04-30 07:25 | 51.43702 | 8.97744 | 31936 ft | 406 kts | 50° |
| 2026-04-30 07:25 | 51.45504 | 9.01219 | 32281 ft | 404 kts | 50° |
| 2026-04-30 07:25 | 51.47295 | 9.04683 | 32617 ft | 403 kts | 50° |
| 2026-04-30 07:26 | 51.49058 | 9.08110 | 32948 ft | 402 kts | 50° |
| 2026-04-30 07:26 | 51.50837 | 9.11579 | 33285 ft | 401 kts | 50° |
| 2026-04-30 07:26 | 51.52616 | 9.15024 | 33466 ft | 399 kts | 50° |
| 2026-04-30 07:26 | 51.54376 | 9.18387 | 33485 ft | 388 kts | 50° |
| 2026-04-30 07:27 | 51.57834 | 9.24952 | 33488 ft | 383 kts | 50° |
| 2026-04-30 07:27 | 51.61269 | 9.31495 | 33498 ft | 382 kts | 50° |
| 2026-04-30 07:28 | 51.64692 | 9.38049 | 33495 ft | 382 kts | 50° |
| 2026-04-30 07:28 | 51.68106 | 9.44605 | 33492 ft | 382 kts | 50° |
| 2026-04-30 07:29 | 51.71523 | 9.51188 | 33495 ft | 382 kts | 50° |
| 2026-04-30 07:29 | 51.74931 | 9.57782 | 33496 ft | 382 kts | 50° |
| 2026-04-30 07:30 | 51.80028 | 9.67683 | 33495 ft | 382 kts | 50° |
| 2026-04-30 07:31 | 51.83424 | 9.74301 | 33492 ft | 382 kts | 50° |
| 2026-04-30 07:31 | 51.86799 | 9.80878 | 33532 ft | 382 kts | 50° |
| 2026-04-30 07:32 | 51.90181 | 9.87484 | 33515 ft | 381 kts | 50° |
| 2026-04-30 07:32 | 51.93558 | 9.94099 | 33514 ft | 381 kts | 50° |
| 2026-04-30 07:33 | 51.96924 | 10.00715 | 33513 ft | 380 kts | 50° |
| 2026-04-30 07:33 | 52.00289 | 10.07353 | 33515 ft | 381 kts | 50° |
| 2026-04-30 07:34 | 52.03659 | 10.14006 | 33512 ft | 381 kts | 50° |
| 2026-04-30 07:34 | 52.06451 | 10.19527 | 33516 ft | 381 kts | 50° |
| 2026-04-30 07:35 | 52.10347 | 10.27267 | 33505 ft | 380 kts | 50° |
| 2026-04-30 07:35 | 52.13694 | 10.33943 | 33522 ft | 380 kts | 50° |
| 2026-04-30 07:36 | 52.16495 | 10.39531 | 33557 ft | 380 kts | 50° |
| 2026-04-30 07:36 | 52.19827 | 10.46194 | 33560 ft | 379 kts | 50° |
| 2026-04-30 07:37 | 52.23149 | 10.52864 | 33561 ft | 378 kts | 50° |
| 2026-04-30 07:37 | 52.26436 | 10.59476 | 33563 ft | 377 kts | 50° |
| 2026-04-30 07:38 | 52.29740 | 10.66135 | 33551 ft | 377 kts | 50° |
| 2026-04-30 07:38 | 52.33036 | 10.72794 | 33538 ft | 377 kts | 50° |
| 2026-04-30 07:39 | 52.36336 | 10.79466 | 33530 ft | 376 kts | 47° |
| 2026-04-30 07:39 | 52.40004 | 10.85582 | 33532 ft | 376 kts | 45° |
| 2026-04-30 07:40 | 52.43695 | 10.91681 | 33525 ft | 377 kts | 45° |
| 2026-04-30 07:40 | 52.47380 | 10.97790 | 33524 ft | 377 kts | 45° |
| 2026-04-30 07:41 | 52.51059 | 11.03911 | 33545 ft | 376 kts | 45° |
| 2026-04-30 07:41 | 52.54550 | 11.10309 | 33547 ft | 377 kts | 55° |
| 2026-04-30 07:42 | 52.56850 | 11.18072 | 33543 ft | 379 kts | 63° |
| 2026-04-30 07:42 | 52.57885 | 11.21982 | 33386 ft | 376 kts | 63° |
| 2026-04-30 07:42 | 52.58920 | 11.25882 | 32972 ft | 370 kts | 63° |
| 2026-04-30 07:42 | 52.59945 | 11.29736 | 32533 ft | 365 kts | 63° |
| 2026-04-30 07:43 | 52.60955 | 11.33541 | 32101 ft | 361 kts | 63° |
| 2026-04-30 07:43 | 52.61947 | 11.37298 | 31678 ft | 356 kts | 63° |
| 2026-04-30 07:43 | 52.62927 | 11.41019 | 31255 ft | 352 kts | 63° |
| 2026-04-30 07:43 | 52.63897 | 11.44706 | 30855 ft | 349 kts | 63° |
| 2026-04-30 07:44 | 52.64856 | 11.48349 | 30428 ft | 345 kts | 63° |
| 2026-04-30 07:44 | 52.65803 | 11.51954 | 30019 ft | 340 kts | 63° |
| 2026-04-30 07:44 | 52.66733 | 11.55507 | 29638 ft | 335 kts | 63° |
| 2026-04-30 07:44 | 52.67647 | 11.59011 | 29262 ft | 330 kts | 63° |
| 2026-04-30 07:45 | 52.68546 | 11.62468 | 28911 ft | 326 kts | 63° |
| 2026-04-30 07:45 | 52.69431 | 11.65868 | 28557 ft | 321 kts | 63° |
| 2026-04-30 07:45 | 52.70303 | 11.69221 | 28200 ft | 316 kts | 63° |
| 2026-04-30 07:45 | 52.71163 | 11.72530 | 27848 ft | 311 kts | 63° |
| 2026-04-30 07:46 | 52.72006 | 11.75776 | 27499 ft | 306 kts | 63° |
| 2026-04-30 07:46 | 52.72842 | 11.78992 | 27154 ft | 304 kts | 63° |
| 2026-04-30 07:46 | 52.73667 | 11.82185 | 26796 ft | 302 kts | 63° |
| 2026-04-30 07:46 | 52.74487 | 11.85371 | 26448 ft | 300 kts | 63° |
| 2026-04-30 07:47 | 52.75302 | 11.88538 | 26093 ft | 299 kts | 63° |
| 2026-04-30 07:47 | 52.76115 | 11.91693 | 25735 ft | 297 kts | 63° |
| 2026-04-30 07:47 | 52.76911 | 11.94792 | 25381 ft | 296 kts | 63° |
| 2026-04-30 07:47 | 52.77709 | 11.97913 | 25001 ft | 294 kts | 63° |
| 2026-04-30 07:48 | 52.78507 | 12.01026 | 24639 ft | 293 kts | 63° |
| 2026-04-30 07:48 | 52.79300 | 12.04118 | 24238 ft | 292 kts | 63° |
| 2026-04-30 07:48 | 52.79988 | 12.07284 | 23769 ft | 295 kts | 72° |
| 2026-04-30 07:48 | 52.80277 | 12.10659 | 23329 ft | 299 kts | 83° |
| 2026-04-30 07:49 | 52.80290 | 12.14094 | 22904 ft | 298 kts | 84° |
| 2026-04-30 07:49 | 52.80302 | 12.17509 | 22501 ft | 297 kts | 83° |
| 2026-04-30 07:49 | 52.80317 | 12.20920 | 22066 ft | 296 kts | 83° |
| 2026-04-30 07:49 | 52.80333 | 12.24323 | 21649 ft | 295 kts | 83° |
| 2026-04-30 07:50 | 52.80350 | 12.27710 | 21238 ft | 295 kts | 83° |
| 2026-04-30 07:50 | 52.80367 | 12.31097 | 20826 ft | 294 kts | 84° |
| 2026-04-30 07:50 | 52.80382 | 12.34484 | 20415 ft | 294 kts | 84° |
| 2026-04-30 07:50 | 52.80394 | 12.37855 | 20007 ft | 294 kts | 84° |
| 2026-04-30 07:51 | 52.80406 | 12.41231 | 19597 ft | 294 kts | 84° |
| 2026-04-30 07:51 | 52.80418 | 12.44607 | 19193 ft | 294 kts | 84° |
| 2026-04-30 07:51 | 52.80429 | 12.47991 | 18776 ft | 295 kts | 84° |
| 2026-04-30 07:51 | 52.80436 | 12.51334 | 18338 ft | 294 kts | 84° |
| 2026-04-30 07:52 | 52.80441 | 12.54716 | 17928 ft | 293 kts | 85° |
| 2026-04-30 07:52 | 52.80446 | 12.58078 | 17528 ft | 292 kts | 85° |
| 2026-04-30 07:52 | 52.80449 | 12.61423 | 17141 ft | 291 kts | 85° |
| 2026-04-30 07:52 | 52.80451 | 12.64770 | 16753 ft | 290 kts | 85° |
| 2026-04-30 07:53 | 52.80453 | 12.68098 | 16363 ft | 290 kts | 85° |
| 2026-04-30 07:53 | 52.80455 | 12.71432 | 15991 ft | 290 kts | 85° |
| 2026-04-30 07:53 | 52.80460 | 12.74764 | 15599 ft | 290 kts | 85° |
| 2026-04-30 07:53 | 52.80465 | 12.78091 | 15215 ft | 289 kts | 85° |
| 2026-04-30 07:54 | 52.80465 | 12.81414 | 14833 ft | 289 kts | 85° |
| 2026-04-30 07:54 | 52.80463 | 12.84741 | 14450 ft | 290 kts | 85° |
| 2026-04-30 07:54 | 52.80460 | 12.88069 | 14033 ft | 290 kts | 85° |
| 2026-04-30 07:54 | 52.80457 | 12.91388 | 13636 ft | 288 kts | 85° |
| 2026-04-30 07:55 | 52.80451 | 12.94695 | 13247 ft | 287 kts | 85° |
| 2026-04-30 07:55 | 52.80446 | 12.97986 | 12855 ft | 286 kts | 85° |
| 2026-04-30 07:55 | 52.80438 | 13.01256 | 12466 ft | 284 kts | 85° |
| 2026-04-30 07:55 | 52.80430 | 13.04522 | 12071 ft | 283 kts | 86° |
| 2026-04-30 07:56 | 52.80423 | 13.07773 | 11678 ft | 283 kts | 86° |
| 2026-04-30 07:56 | 52.80413 | 13.11005 | 11426 ft | 277 kts | 86° |
| 2026-04-30 07:56 | 52.80400 | 13.14111 | 11121 ft | 272 kts | 86° |
| 2026-04-30 07:56 | 52.80388 | 13.17217 | 10553 ft | 268 kts | 86° |
| 2026-04-30 07:57 | 52.80377 | 13.20243 | 10112 ft | 258 kts | 86° |
| 2026-04-30 07:57 | 52.80364 | 13.23145 | 9723 ft | 247 kts | 86° |
| 2026-04-30 07:57 | 52.80353 | 13.25940 | 9358 ft | 240 kts | 86° |
| 2026-04-30 07:57 | 52.80344 | 13.28708 | 8993 ft | 241 kts | 87° |
| 2026-04-30 07:58 | 52.80096 | 13.31468 | 8630 ft | 245 kts | 102° |
| 2026-04-30 07:58 | 52.79401 | 13.34107 | 8320 ft | 263 kts | 117° |
| 2026-04-30 07:58 | 52.78237 | 13.36534 | 8037 ft | 274 kts | 128° |
| 2026-04-30 07:58 | 52.76943 | 13.38847 | 7728 ft | 274 kts | 128° |
| 2026-04-30 07:59 | 52.75656 | 13.41157 | 7454 ft | 273 kts | 128° |
| 2026-04-30 07:59 | 52.74375 | 13.43458 | 7160 ft | 271 kts | 128° |
| 2026-04-30 07:59 | 52.73105 | 13.45741 | 6862 ft | 270 kts | 128° |
| 2026-04-30 08:00 | 52.70592 | 13.50256 | 6274 ft | 261 kts | 129° |
| 2026-04-30 08:00 | 52.69386 | 13.52415 | 6000 ft | 249 kts | 129° |
| 2026-04-30 08:00 | 52.68264 | 13.54419 | 5746 ft | 233 kts | 129° |
| 2026-04-30 08:00 | 52.67180 | 13.56360 | 5500 ft | 229 kts | 129° |
| 2026-04-30 08:01 | 52.66105 | 13.58288 | 5258 ft | 229 kts | 129° |
| 2026-04-30 08:01 | 52.65037 | 13.60211 | 5003 ft | 227 kts | 129° |
| 2026-04-30 08:01 | 52.63948 | 13.62175 | 4409 ft | 238 kts | 130° |
| 2026-04-30 08:01 | 52.62753 | 13.64087 | 4032 ft | 242 kts | 146° |
| 2026-04-30 08:02 | 52.59742 | 13.63569 | 3615 ft | 224 kts | 232° |
| 2026-04-30 08:02 | 52.59125 | 13.61343 | 3451 ft | 210 kts | 261° |
| 2026-04-30 08:03 | 52.58671 | 13.56734 | 3124 ft | 199 kts | 264° |
| 2026-04-30 08:03 | 52.58251 | 13.52300 | 2778 ft | 192 kts | 264° |
| 2026-04-30 08:03 | 52.58047 | 13.50164 | 2509 ft | 184 kts | 264° |
| 2026-04-30 08:04 | 52.57854 | 13.48152 | 2269 ft | 174 kts | 263° |
| 2026-04-30 08:04 | 52.57674 | 13.46285 | 2056 ft | 156 kts | 264° |
| 2026-04-30 08:04 | 52.57509 | 13.44584 | 1805 ft | 146 kts | 264° |
| 2026-04-30 08:04 | 52.57356 | 13.42976 | 1621 ft | 140 kts | 264° |
| 2026-04-30 08:05 | 52.57207 | 13.41410 | 1447 ft | 137 kts | 264° |
| 2026-04-30 08:05 | 52.57056 | 13.39863 | 1262 ft | 137 kts | 263° |
| 2026-04-30 08:05 | 52.56913 | 13.38327 | 1056 ft | 135 kts | 263° |
| 2026-04-30 08:05 | 52.56765 | 13.36805 | 868 ft | 134 kts | 261° |
| 2026-04-30 08:06 | 52.56618 | 13.35301 | 680 ft | 133 kts | 262° |
| 2026-04-30 08:06 | 52.56471 | 13.33820 | 515 ft | 132 kts | 263° |
| 2026-04-30 08:06 | 52.56327 | 13.32338 | 357 ft | 131 kts | 264° |
| 2026-04-30 08:06 | 52.56184 | 13.30868 | 164 ft | 130 kts | 262° |
| 2026-04-30 08:07 | 52.56058 | 13.29563 | 130 ft | 92 kts | 261° |
| 2026-04-30 08:07 | 52.55981 | 13.28779 | 131 ft | 55 kts | 261° |
| 2026-04-30 08:07 | 52.55930 | 13.28265 | 132 ft | 27 kts | 261° |
| 2026-04-30 08:07 | 52.55887 | 13.28124 | 130 ft | 10 kts | 184° |
| 2026-04-30 08:08 | 52.55826 | 13.28138 | 129 ft | 8 kts | 172° |
| 2026-04-30 08:08 | 52.55774 | 13.28150 | 132 ft | 9 kts | 171° |
| 2026-04-30 08:08 | 52.55683 | 13.28174 | 133 ft | 18 kts | 171° |
| 2026-04-30 08:08 | 52.55592 | 13.28209 | 132 ft | 9 kts | 143° |
| 2026-04-30 08:09 | 52.55576 | 13.28297 | 129 ft | 8 kts | 83° |
| 2026-04-30 08:09 | 52.55585 | 13.28383 | 133 ft | 9 kts | 81° |
| 2026-04-30 08:09 | 52.55596 | 13.28502 | 131 ft | 11 kts | 81° |
| 2026-04-30 08:09 | 52.55608 | 13.28624 | 129 ft | 11 kts | 81° |
| 2026-04-30 08:10 | 52.55623 | 13.28777 | 129 ft | 14 kts | 81° |
| 2026-04-30 08:10 | 52.55626 | 13.28915 | 129 ft | 10 kts | 115° |
| 2026-04-30 08:10 | 52.55575 | 13.28933 | 132 ft | 5 kts | 183° |
| 2026-04-30 08:10 | 52.55560 | 13.28932 | 132 ft | 1 kts | 183° |
| 2026-04-30 08:11 | 52.55558 | 13.28932 | 132 ft | 0 kts | 183° |